createdAt,value
2019-01-19T00:04:05.086Z,35.68
2019-01-19T00:09:14.032Z,36.03
2019-01-19T00:14:22.958Z,40.28
2019-01-19T00:19:31.890Z,39.22
2019-01-19T00:24:40.874Z,38.83
2019-01-19T00:29:49.827Z,36.97
2019-01-19T00:34:58.815Z,39.76
2019-01-19T00:40:07.750Z,36.62
2019-01-19T00:45:16.783Z,40.04
2019-01-19T00:50:25.705Z,38.57
2019-01-19T00:55:34.710Z,39.37
2019-01-19T01:00:43.641Z,37.31
2019-01-19T01:05:52.610Z,38.27
2019-01-19T01:11:01.542Z,36.38
2019-01-19T01:16:10.530Z,41.19
2019-01-19T01:21:19.534Z,40.14
2019-01-19T01:26:28.548Z,39.26
2019-01-19T01:31:37.515Z,40.09
2019-01-19T01:36:46.474Z,40.43
2019-01-19T01:41:55.908Z,40.82
2019-01-19T01:47:03.898Z,40.69
2019-01-19T01:52:12.875Z,38.09
2019-01-19T01:57:21.779Z,35.65
2019-01-19T02:02:30.805Z,36.30
2019-01-19T02:07:39.762Z,38.13
2019-01-19T02:12:48.786Z,38.00
2019-01-19T02:17:57.750Z,38.36
2019-01-19T02:23:06.741Z,38.37
2019-01-19T02:28:15.687Z,36.53
2019-01-19T02:33:24.674Z,35.66
2019-01-19T02:38:33.628Z,36.65
2019-01-19T02:43:42.594Z,36.83
2019-01-19T02:48:51.550Z,37.19
2019-01-19T02:54:00.583Z,34.97
2019-01-19T02:59:09.543Z,34.11
2019-01-19T03:04:18.537Z,33.90
2019-01-19T03:09:27.495Z,33.75
2019-01-19T03:14:36.482Z,32.05
2019-01-19T03:19:45.430Z,30.19
2019-01-19T03:24:54.459Z,30.40
2019-01-19T03:30:03.400Z,28.93
2019-01-19T03:35:12.331Z,29.34
2019-01-19T03:40:21.359Z,30.94
2019-01-19T03:45:30.327Z,29.75
2019-01-19T03:50:39.310Z,30.01
2019-01-19T03:55:48.249Z,29.04
2019-01-19T04:00:57.211Z,28.87
2019-01-19T04:06:12.559Z,28.22
2019-01-19T04:11:14.722Z,26.68
2019-01-19T04:16:23.667Z,28.27
2019-01-19T04:21:32.693Z,27.58
2019-01-19T04:26:41.650Z,26.35
2019-01-19T04:31:50.608Z,25.98
2019-01-19T04:36:59.598Z,25.92
2019-01-19T04:42:08.567Z,25.07
2019-01-19T04:47:17.613Z,25.12
2019-01-19T04:52:26.554Z,24.61
2019-01-19T04:57:35.518Z,24.87
2019-01-19T05:02:44.490Z,24.55
2019-01-19T05:07:53.442Z,24.83
2019-01-19T05:13:02.390Z,24.12
2019-01-19T05:18:11.391Z,24.33
2019-01-19T05:23:20.314Z,22.38
2019-01-19T05:28:29.311Z,23.33
2019-01-19T05:33:38.259Z,22.49
2019-01-19T05:38:47.278Z,23.03
2019-01-19T05:43:56.212Z,22.12
2019-01-19T05:49:05.175Z,21.55
2019-01-19T05:54:14.694Z,21.38
2019-01-19T05:59:23.711Z,21.56
2019-01-19T06:04:32.667Z,20.09
2019-01-19T06:09:41.655Z,20.74
2019-01-19T06:14:50.610Z,19.95
2019-01-19T06:19:59.603Z,20.06
2019-01-19T06:25:08.574Z,20.15
2019-01-19T06:30:17.610Z,20.39
2019-01-19T06:35:26.535Z,19.21
2019-01-19T06:40:35.543Z,20.04
2019-01-19T06:45:44.511Z,19.45
2019-01-19T06:50:53.462Z,19.49
2019-01-19T06:56:02.415Z,19.80
2019-01-19T07:01:11.432Z,19.75
2019-01-19T07:06:20.402Z,18.66
2019-01-19T07:11:29.400Z,19.98
2019-01-19T07:16:38.370Z,19.48
2019-01-19T07:21:47.349Z,19.38
2019-01-19T07:26:56.290Z,20.07
2019-01-19T07:32:05.259Z,20.28
2019-01-19T07:37:15.360Z,18.94
2019-01-19T07:42:14.523Z,18.51
2019-01-19T07:47:23.515Z,19.21
2019-01-19T07:52:32.482Z,19.07
2019-01-19T07:57:41.398Z,19.56
2019-01-19T08:02:50.371Z,19.61
2019-01-19T08:07:59.382Z,20.14
2019-01-19T08:13:08.331Z,20.84
2019-01-19T08:18:17.275Z,21.30
2019-01-19T08:23:26.303Z,21.19
2019-01-19T08:28:35.218Z,22.20
2019-01-19T08:33:44.234Z,21.15
2019-01-19T08:38:53.152Z,20.95
2019-01-19T08:44:02.134Z,21.39
2019-01-19T08:49:11.091Z,22.20
2019-01-19T08:54:20.070Z,21.21
2019-01-19T08:59:29.018Z,23.01
2019-01-19T09:04:38.078Z,23.08
2019-01-19T09:09:47.010Z,23.65
2019-01-19T09:14:56.058Z,23.84
2019-01-19T09:20:04.982Z,24.64
2019-01-19T09:25:13.990Z,24.08
2019-01-19T09:30:24.530Z,24.95
2019-01-19T09:35:24.691Z,24.66
2019-01-19T09:40:23.686Z,24.76
2019-01-19T09:45:32.729Z,25.46
2019-01-19T09:50:41.634Z,25.05
2019-01-19T09:55:50.590Z,25.81
2019-01-19T10:00:59.546Z,25.35
2019-01-19T10:06:08.531Z,26.20
2019-01-19T10:11:17.501Z,25.84
2019-01-19T10:16:26.518Z,25.94
2019-01-19T10:21:35.474Z,25.48
2019-01-19T10:26:44.487Z,25.97
2019-01-19T10:31:53.418Z,26.54
2019-01-19T10:37:02.491Z,26.05
2019-01-19T10:42:11.446Z,25.26
2019-01-19T10:47:20.430Z,25.16
2019-01-19T10:52:29.399Z,24.76
2019-01-19T10:57:38.475Z,24.71
2019-01-19T11:02:47.438Z,24.67
2019-01-19T11:08:03.198Z,22.07
2019-01-19T11:13:04.870Z,21.39
2019-01-19T11:18:13.854Z,21.35
2019-01-19T11:23:22.810Z,21.61
2019-01-19T11:28:31.871Z,21.32
2019-01-19T11:33:40.814Z,21.90
2019-01-19T11:38:49.816Z,19.90
2019-01-19T11:43:58.742Z,20.52
2019-01-19T11:49:07.718Z,18.84
2019-01-19T11:54:16.647Z,18.98
2019-01-19T11:59:25.653Z,19.39
2019-01-19T12:04:34.603Z,19.11
2019-01-19T12:09:43.579Z,18.04
2019-01-19T12:14:52.515Z,17.54
2019-01-19T12:20:01.466Z,16.99
2019-01-19T12:25:10.422Z,15.81
2019-01-19T12:30:19.442Z,17.46
2019-01-19T12:35:28.407Z,16.40
2019-01-19T12:40:37.330Z,16.34
2019-01-19T12:45:46.293Z,17.53
2019-01-19T12:50:53.821Z,16.89
2019-01-19T12:56:02.754Z,16.27
2019-01-19T13:01:11.966Z,15.44
2019-01-19T13:06:20.915Z,15.95
2019-01-19T13:11:30.506Z,16.57
2019-01-19T13:16:39.447Z,15.18
2019-01-19T13:21:48.471Z,14.60
2019-01-19T13:26:57.424Z,14.31
2019-01-19T13:32:06.358Z,14.15
2019-01-19T13:37:15.327Z,15.24
2019-01-19T13:42:24.282Z,16.02
2019-01-19T13:47:33.215Z,16.36
2019-01-19T13:52:42.412Z,15.24
2019-01-19T13:57:51.239Z,15.27
2019-01-19T14:03:00.182Z,14.87
2019-01-19T14:08:09.099Z,15.11
2019-01-19T14:13:18.154Z,14.19
2019-01-19T14:18:27.086Z,14.97
2019-01-19T14:23:36.050Z,14.43
2019-01-19T14:28:45.017Z,14.09
2019-01-19T14:33:54.030Z,13.97
2019-01-19T14:39:02.974Z,13.71
2019-01-19T14:44:11.983Z,14.13
2019-01-19T14:49:20.965Z,13.50
2019-01-19T14:54:29.946Z,13.68
2019-01-19T14:59:38.893Z,14.07
2019-01-19T15:04:47.842Z,13.59
2019-01-19T15:09:56.758Z,13.47
2019-01-19T15:15:05.683Z,13.78
2019-01-19T15:20:14.654Z,13.74
2019-01-19T15:25:23.683Z,13.84
2019-01-19T15:30:32.599Z,13.36
2019-01-19T15:35:41.690Z,13.01
2019-01-19T15:40:50.610Z,14.41
2019-01-19T15:45:59.611Z,13.86
2019-01-19T15:51:08.523Z,14.15
2019-01-19T15:56:17.566Z,13.73
2019-01-19T16:01:26.493Z,14.08
2019-01-19T16:06:35.524Z,13.94
2019-01-19T16:11:44.462Z,13.61
2019-01-19T16:16:53.444Z,13.17
2019-01-19T16:22:02.413Z,12.92
2019-01-19T16:27:11.386Z,13.46
2019-01-19T16:32:20.308Z,12.92
2019-01-19T16:37:29.306Z,12.88
2019-01-19T16:42:39.124Z,12.96
2019-01-19T16:47:46.982Z,13.26
2019-01-19T16:52:55.938Z,13.13
2019-01-19T16:58:04.884Z,13.48
2019-01-19T17:03:13.891Z,13.22
2019-01-19T17:08:22.837Z,12.70
2019-01-19T17:13:31.856Z,12.58
2019-01-19T17:18:40.813Z,12.99
2019-01-19T17:23:49.819Z,12.48
2019-01-19T17:28:58.750Z,12.25
2019-01-19T17:34:07.790Z,11.92
2019-01-19T17:39:16.897Z,11.90
2019-01-19T17:44:25.858Z,12.20
2019-01-19T17:49:34.899Z,12.23
2019-01-19T17:54:43.834Z,11.86
2019-01-19T17:59:52.798Z,11.73
2019-01-19T18:05:01.766Z,11.46
2019-01-19T18:10:10.716Z,11.21
2019-01-19T18:15:19.695Z,11.40
2019-01-19T18:20:28.728Z,11.46
2019-01-19T18:25:37.650Z,10.96
2019-01-19T18:30:46.726Z,10.39
2019-01-19T18:35:55.671Z,10.60
2019-01-19T18:41:04.709Z,11.09
2019-01-19T18:46:13.631Z,11.60
2019-01-19T18:51:22.614Z,11.84
2019-01-19T18:56:31.571Z,12.17
2019-01-19T19:01:40.568Z,11.74
2019-01-19T19:06:49.526Z,11.90
2019-01-19T19:11:58.462Z,11.99
2019-01-19T19:17:07.491Z,12.49
2019-01-19T19:22:16.446Z,12.36
2019-01-19T19:27:25.446Z,12.38
2019-01-19T19:32:34.398Z,12.16
2019-01-19T19:37:43.411Z,11.58
2019-01-19T19:42:52.338Z,11.32
2019-01-19T19:48:01.302Z,11.48
2019-01-19T19:53:10.282Z,11.54
2019-01-19T19:58:19.346Z,12.10
2019-01-19T20:03:28.310Z,12.57
2019-01-19T20:08:37.366Z,11.50
2019-01-19T20:13:46.290Z,11.48
2019-01-19T20:18:55.310Z,11.80
2019-01-19T20:24:04.234Z,11.82
2019-01-19T20:29:13.264Z,12.70
2019-01-19T20:34:22.206Z,12.55
2019-01-19T20:39:31.175Z,12.62
2019-01-19T20:44:40.186Z,12.81
2019-01-19T20:49:49.130Z,12.17
2019-01-19T20:54:58.074Z,12.78
2019-01-19T21:00:07.037Z,11.96
2019-01-19T21:05:16.062Z,12.08
2019-01-19T21:10:31.511Z,12.40
2019-01-19T21:15:33.607Z,11.72
2019-01-19T21:20:42.544Z,11.68
2019-01-19T21:25:51.474Z,13.14
2019-01-19T21:31:00.515Z,12.83
2019-01-19T21:36:09.462Z,12.21
2019-01-19T21:41:18.488Z,12.66
2019-01-19T21:46:27.489Z,12.58
2019-01-19T21:51:36.610Z,12.71
2019-01-19T21:56:45.693Z,12.39
2019-01-19T22:01:54.586Z,12.21
2019-01-19T22:07:04.000Z,12.49
2019-01-19T22:12:13.070Z,12.32
2019-01-19T22:17:22.106Z,11.56
2019-01-19T22:22:31.055Z,11.55
2019-01-19T22:27:40.071Z,11.34
2019-01-19T22:32:49.024Z,11.38
2019-01-19T22:37:58.007Z,12.18
2019-01-19T22:43:06.954Z,11.67
2019-01-19T22:48:15.898Z,12.15
2019-01-19T22:53:24.963Z,11.96
2019-01-19T22:58:33.899Z,11.27
2019-01-19T23:03:42.894Z,12.13
2019-01-19T23:08:51.827Z,11.83
2019-01-19T23:14:00.802Z,11.29
2019-01-19T23:19:09.750Z,12.15
2019-01-19T23:24:18.714Z,12.08
2019-01-19T23:29:27.661Z,12.45
2019-01-19T23:34:36.626Z,12.54
2019-01-19T23:39:45.554Z,13.08
2019-01-19T23:44:54.510Z,12.48
2019-01-19T23:50:03.450Z,12.19
2019-01-19T23:55:12.492Z,12.16
